sensor_id;sensor_type;location;lat;lon;timestamp;pressure;altitude;pressure_sealevel;temperature;humidity
63194;BME280;49289;51.670;5.624;2023-03-25T00:01:06;100367.41;;;14.54;60.67
63194;BME280;49289;51.670;5.624;2023-03-25T00:02:53;100352.37;;;14.66;60.27
63194;BME280;49289;51.670;5.624;2023-03-25T00:04:40;100367.83;;;14.27;61.03
63194;BME280;49289;51.670;5.624;2023-03-25T00:06:27;100366.45;;;14.00;61.78
63194;BME280;49289;51.670;5.624;2023-03-25T00:08:14;100366.63;;;13.83;61.21
63194;BME280;49289;51.670;5.624;2023-03-25T00:10:01;100348.17;;;13.98;61.76
63194;BME280;49289;51.670;5.624;2023-03-25T00:11:49;100360.45;;;14.30;60.93
63194;BME280;49289;51.670;5.624;2023-03-25T00:13:37;100354.11;;;14.41;60.33
63194;BME280;49289;51.670;5.624;2023-03-25T00:15:25;100348.25;;;14.22;60.79
63194;BME280;49289;51.670;5.624;2023-03-25T00:17:12;100343.95;;;14.41;60.41
63194;BME280;49289;51.670;5.624;2023-03-25T00:18:59;100348.90;;;13.83;61.11
63194;BME280;49289;51.670;5.624;2023-03-25T00:20:47;100366.14;;;13.68;62.07
63194;BME280;49289;51.670;5.624;2023-03-25T00:22:33;100368.29;;;14.09;60.33
63194;BME280;49289;51.670;5.624;2023-03-25T00:24:20;100371.48;;;14.21;60.15
63194;BME280;49289;51.670;5.624;2023-03-25T00:26:09;100369.78;;;14.41;59.88
63194;BME280;49289;51.670;5.624;2023-03-25T00:27:57;100352.30;;;14.66;58.91
63194;BME280;49289;51.670;5.624;2023-03-25T00:29:45;100368.54;;;14.41;59.24
63194;BME280;49289;51.670;5.624;2023-03-25T00:31:32;100364.62;;;14.24;59.95
63194;BME280;49289;51.670;5.624;2023-03-25T00:33:19;100363.51;;;14.14;60.58
63194;BME280;49289;51.670;5.624;2023-03-25T00:35:06;100365.28;;;13.75;60.84
63194;BME280;49289;51.670;5.624;2023-03-25T00:36:53;100361.14;;;14.23;59.96
63194;BME280;49289;51.670;5.624;2023-03-25T00:38:41;100345.03;;;14.32;59.74
63194;BME280;49289;51.670;5.624;2023-03-25T00:40:28;100365.56;;;14.35;59.27
63194;BME280;49289;51.670;5.624;2023-03-25T00:42:15;100366.98;;;14.05;60.28
63194;BME280;49289;51.670;5.624;2023-03-25T00:44:02;100344.78;;;14.27;59.26
63194;BME280;49289;51.670;5.624;2023-03-25T00:45:51;100365.86;;;14.82;57.45
63194;BME280;49289;51.670;5.624;2023-03-25T00:47:38;100365.17;;;14.27;58.07
63194;BME280;49289;51.670;5.624;2023-03-25T00:49:27;100346.72;;;14.24;58.15
63194;BME280;49289;51.670;5.624;2023-03-25T00:51:15;100362.73;;;13.95;58.89
63194;BME280;49289;51.670;5.624;2023-03-25T00:53:02;100368.44;;;14.13;58.81
63194;BME280;49289;51.670;5.624;2023-03-25T00:54:49;100357.78;;;14.29;58.56
63194;BME280;49289;51.670;5.624;2023-03-25T00:56:36;100363.64;;;14.63;57.86
63194;BME280;49289;51.670;5.624;2023-03-25T00:58:23;100365.39;;;14.46;57.39
63194;BME280;49289;51.670;5.624;2023-03-25T01:00:12;100362.97;;;14.02;58.32
63194;BME280;49289;51.670;5.624;2023-03-25T01:01:59;100366.73;;;14.22;57.98
63194;BME280;49289;51.670;5.624;2023-03-25T01:03:46;100361.21;;;14.05;58.50
63194;BME280;49289;51.670;5.624;2023-03-25T01:05:34;100345.23;;;13.51;59.07
63194;BME280;49289;51.670;5.624;2023-03-25T01:07:21;100348.75;;;13.84;58.27
63194;BME280;49289;51.670;5.624;2023-03-25T01:09:09;100358.87;;;14.51;57.73
63194;BME280;49289;51.670;5.624;2023-03-25T01:10:56;100362.27;;;13.84;58.71
63194;BME280;49289;51.670;5.624;2023-03-25T01:12:43;100353.39;;;14.44;57.48
63194;BME280;49289;51.670;5.624;2023-03-25T01:14:30;100356.14;;;13.61;59.27
63194;BME280;49289;51.670;5.624;2023-03-25T01:16:18;100356.66;;;13.93;58.56
63194;BME280;49289;51.670;5.624;2023-03-25T01:18:05;100353.13;;;14.59;57.37
63194;BME280;49289;51.670;5.624;2023-03-25T01:19:52;100358.33;;;14.78;56.96
63194;BME280;49289;51.670;5.624;2023-03-25T01:21:39;100341.77;;;14.03;58.18
63194;BME280;49289;51.670;5.624;2023-03-25T01:23:27;100359.27;;;14.55;57.42
63194;BME280;49289;51.670;5.624;2023-03-25T01:25:15;100368.92;;;14.42;57.70
63194;BME280;49289;51.670;5.624;2023-03-25T01:27:02;100361.80;;;14.20;59.10
63194;BME280;49289;51.670;5.624;2023-03-25T01:28:49;100353.29;;;14.19;59.44
63194;BME280;49289;51.670;5.624;2023-03-25T01:30:36;100354.66;;;14.30;59.68
63194;BME280;49289;51.670;5.624;2023-03-25T01:32:25;100353.09;;;14.03;59.98
63194;BME280;49289;51.670;5.624;2023-03-25T01:34:13;100341.72;;;14.13;59.60
63194;BME280;49289;51.670;5.624;2023-03-25T01:36:01;100353.32;;;14.03;59.85
63194;BME280;49289;51.670;5.624;2023-03-25T01:37:48;100356.03;;;14.59;58.92
63194;BME280;49289;51.670;5.624;2023-03-25T01:39:35;100355.61;;;14.15;59.55
63194;BME280;49289;51.670;5.624;2023-03-25T01:41:23;100334.09;;;13.99;60.04
63194;BME280;49289;51.670;5.624;2023-03-25T01:43:13;100330.66;;;13.76;60.05
63194;BME280;49289;51.670;5.624;2023-03-25T01:45:25;100354.37;;;13.58;61.01
63194;BME280;49289;51.670;5.624;2023-03-25T01:47:11;100357.54;;;13.80;61.10
63194;BME280;49289;51.670;5.624;2023-03-25T01:48:58;100336.98;;;14.34;59.51
63194;BME280;49289;51.670;5.624;2023-03-25T01:50:46;100358.90;;;13.39;62.47
63194;BME280;49289;51.670;5.624;2023-03-25T01:52:32;100362.65;;;13.02;64.11
63194;BME280;49289;51.670;5.624;2023-03-25T01:54:19;100339.12;;;13.65;62.70
63194;BME280;49289;51.670;5.624;2023-03-25T01:56:08;100338.41;;;13.56;61.80
63194;BME280;49289;51.670;5.624;2023-03-25T01:57:56;100355.22;;;14.00;61.43
63194;BME280;49289;51.670;5.624;2023-03-25T01:59:44;100337.39;;;13.07;62.66
63194;BME280;49289;51.670;5.624;2023-03-25T02:01:32;100361.73;;;13.44;62.92
63194;BME280;49289;51.670;5.624;2023-03-25T02:03:20;100358.59;;;13.51;62.72
63194;BME280;49289;51.670;5.624;2023-03-25T02:05:08;100333.42;;;13.45;62.06
63194;BME280;49289;51.670;5.624;2023-03-25T02:06:55;100348.05;;;13.75;61.84
63194;BME280;49289;51.670;5.624;2023-03-25T02:08:42;100345.49;;;13.60;61.92
63194;BME280;49289;51.670;5.624;2023-03-25T02:10:29;100340.96;;;13.43;62.03
63194;BME280;49289;51.670;5.624;2023-03-25T02:12:16;100344.27;;;13.92;60.98
63194;BME280;49289;51.670;5.624;2023-03-25T02:14:04;100343.14;;;13.77;61.97
63194;BME280;49289;51.670;5.624;2023-03-25T02:15:58;100333.38;;;13.56;62.57
63194;BME280;49289;51.670;5.624;2023-03-25T02:17:49;100354.41;;;13.48;63.63
63194;BME280;49289;51.670;5.624;2023-03-25T02:19:46;100338.84;;;13.49;64.01
63194;BME280;49289;51.670;5.624;2023-03-25T02:21:52;100330.02;;;13.26;63.91
63194;BME280;49289;51.670;5.624;2023-03-25T02:24:06;100334.52;;;13.60;63.52
63194;BME280;49289;51.670;5.624;2023-03-25T02:26:09;100339.54;;;13.46;63.63
63194;BME280;49289;51.670;5.624;2023-03-25T02:28:02;100337.27;;;13.34;63.04
63194;BME280;49289;51.670;5.624;2023-03-25T02:32:01;100355.13;;;13.47;63.25
63194;BME280;49289;51.670;5.624;2023-03-25T02:34:05;100328.51;;;12.94;64.38
63194;BME280;49289;51.670;5.624;2023-03-25T02:38:12;100321.08;;;13.55;62.28
63194;BME280;49289;51.670;5.624;2023-03-25T02:40:00;100341.75;;;13.78;61.91
63194;BME280;49289;51.670;5.624;2023-03-25T02:41:49;100340.27;;;13.73;61.59
63194;BME280;49289;51.670;5.624;2023-03-25T02:43:36;100338.59;;;13.30;62.58
63194;BME280;49289;51.670;5.624;2023-03-25T02:45:23;100322.29;;;13.65;61.97
63194;BME280;49289;51.670;5.624;2023-03-25T02:47:17;100341.06;;;13.83;63.16
63194;BME280;49289;51.670;5.624;2023-03-25T02:48:57;100324.77;;;13.94;62.47
63194;BME280;49289;51.670;5.624;2023-03-25T02:50:45;100337.56;;;13.59;63.85
63194;BME280;49289;51.670;5.624;2023-03-25T02:52:33;100338.45;;;13.58;63.99
63194;BME280;49289;51.670;5.624;2023-03-25T02:54:21;100337.37;;;12.97;65.35
63194;BME280;49289;51.670;5.624;2023-03-25T02:56:10;100326.46;;;13.52;64.91
63194;BME280;49289;51.670;5.624;2023-03-25T02:57:56;100327.30;;;13.89;63.83
63194;BME280;49289;51.670;5.624;2023-03-25T02:59:44;100325.50;;;13.94;63.92
63194;BME280;49289;51.670;5.624;2023-03-25T03:01:31;100303.93;;;13.23;64.90
63194;BME280;49289;51.670;5.624;2023-03-25T03:03:19;100322.71;;;13.00;65.86
63194;BME280;49289;51.670;5.624;2023-03-25T03:05:18;100314.66;;;13.21;66.16
63194;BME280;49289;51.670;5.624;2023-03-25T03:06:54;100315.83;;;13.25;65.77
63194;BME280;49289;51.670;5.624;2023-03-25T03:08:49;100307.76;;;13.33;64.68
63194;BME280;49289;51.670;5.624;2023-03-25T03:10:36;100311.92;;;13.74;64.25
63194;BME280;49289;51.670;5.624;2023-03-25T03:12:30;100318.27;;;13.46;63.82
63194;BME280;49289;51.670;5.624;2023-03-25T03:14:36;100319.44;;;13.55;64.05
63194;BME280;49289;51.670;5.624;2023-03-25T03:16:23;100318.48;;;13.61;63.42
63194;BME280;49289;51.670;5.624;2023-03-25T03:18:16;100306.05;;;13.34;63.41
63194;BME280;49289;51.670;5.624;2023-03-25T03:20:03;100330.31;;;13.11;64.73
63194;BME280;49289;51.670;5.624;2023-03-25T03:21:51;100314.60;;;12.70;65.19
63194;BME280;49289;51.670;5.624;2023-03-25T03:23:38;100329.56;;;13.07;65.32
63194;BME280;49289;51.670;5.624;2023-03-25T03:25:28;100327.81;;;13.14;64.83
63194;BME280;49289;51.670;5.624;2023-03-25T03:27:16;100327.54;;;13.09;64.75
63194;BME280;49289;51.670;5.624;2023-03-25T03:29:03;100323.52;;;13.34;64.00
63194;BME280;49289;51.670;5.624;2023-03-25T03:30:50;100323.98;;;13.43;63.67
63194;BME280;49289;51.670;5.624;2023-03-25T03:32:38;100327.86;;;13.16;64.34
63194;BME280;49289;51.670;5.624;2023-03-25T03:34:26;100313.37;;;12.95;65.06
63194;BME280;49289;51.670;5.624;2023-03-25T03:36:12;100317.13;;;13.40;64.54
63194;BME280;49289;51.670;5.624;2023-03-25T03:38:02;100331.58;;;13.33;64.68
63194;BME280;49289;51.670;5.624;2023-03-25T03:39:49;100327.13;;;13.38;64.95
63194;BME280;49289;51.670;5.624;2023-03-25T03:41:37;100312.53;;;13.24;65.12
63194;BME280;49289;51.670;5.624;2023-03-25T03:43:25;100312.27;;;13.47;65.88
63194;BME280;49289;51.670;5.624;2023-03-25T03:45:16;100340.73;;;12.89;67.80
63194;BME280;49289;51.670;5.624;2023-03-25T03:47:04;100333.52;;;13.11;68.10
63194;BME280;49289;51.670;5.624;2023-03-25T03:48:51;100333.92;;;13.03;68.17
63194;BME280;49289;51.670;5.624;2023-03-25T03:50:37;100338.09;;;13.09;68.11
63194;BME280;49289;51.670;5.624;2023-03-25T03:52:23;100316.19;;;13.13;67.76
63194;BME280;49289;51.670;5.624;2023-03-25T03:54:12;100323.78;;;13.39;66.88
63194;BME280;49289;51.670;5.624;2023-03-25T03:55:58;100326.64;;;13.30;67.61
63194;BME280;49289;51.670;5.624;2023-03-25T03:57:46;100313.19;;;12.90;67.58
63194;BME280;49289;51.670;5.624;2023-03-25T03:59:34;100324.56;;;13.29;67.34
63194;BME280;49289;51.670;5.624;2023-03-25T04:01:20;100322.69;;;13.68;66.21
63194;BME280;49289;51.670;5.624;2023-03-25T04:03:07;100311.50;;;13.39;66.49
63194;BME280;49289;51.670;5.624;2023-03-25T04:04:53;100311.37;;;12.90;67.30
63194;BME280;49289;51.670;5.624;2023-03-25T04:06:42;100324.18;;;13.30;66.97
63194;BME280;49289;51.670;5.624;2023-03-25T04:08:30;100321.49;;;13.40;66.61
63194;BME280;49289;51.670;5.624;2023-03-25T04:10:20;100322.02;;;13.21;66.53
63194;BME280;49289;51.670;5.624;2023-03-25T04:12:07;100311.05;;;13.12;66.62
63194;BME280;49289;51.670;5.624;2023-03-25T04:13:55;100315.84;;;13.01;66.31
63194;BME280;49289;51.670;5.624;2023-03-25T04:15:43;100319.73;;;12.79;66.81
63194;BME280;49289;51.670;5.624;2023-03-25T04:17:31;100311.19;;;12.93;65.70
63194;BME280;49289;51.670;5.624;2023-03-25T04:19:19;100330.66;;;13.47;65.26
63194;BME280;49289;51.670;5.624;2023-03-25T04:21:07;100314.80;;;13.45;64.67
63194;BME280;49289;51.670;5.624;2023-03-25T04:22:54;100309.52;;;13.42;64.70
63194;BME280;49289;51.670;5.624;2023-03-25T04:24:41;100319.80;;;13.19;65.02
63194;BME280;49289;51.670;5.624;2023-03-25T04:26:28;100318.86;;;13.82;63.61
63194;BME280;49289;51.670;5.624;2023-03-25T04:28:15;100309.47;;;13.67;63.60
63194;BME280;49289;51.670;5.624;2023-03-25T04:30:03;100305.86;;;13.37;64.38
63194;BME280;49289;51.670;5.624;2023-03-25T04:31:52;100304.08;;;13.78;62.67
63194;BME280;49289;51.670;5.624;2023-03-25T04:33:40;100307.58;;;13.51;63.42
63194;BME280;49289;51.670;5.624;2023-03-25T04:35:28;100317.45;;;13.75;63.74
63194;BME280;49289;51.670;5.624;2023-03-25T04:37:16;100327.20;;;13.67;63.36
63194;BME280;49289;51.670;5.624;2023-03-25T04:39:04;100315.80;;;13.35;63.69
63194;BME280;49289;51.670;5.624;2023-03-25T04:40:52;100282.97;;;13.30;63.41
63194;BME280;49289;51.670;5.624;2023-03-25T04:42:40;100333.45;;;13.47;63.24
63194;BME280;49289;51.670;5.624;2023-03-25T04:44:28;100307.14;;;13.10;64.08
63194;BME280;49289;51.670;5.624;2023-03-25T04:46:16;100305.52;;;13.24;63.48
63194;BME280;49289;51.670;5.624;2023-03-25T04:48:04;100307.55;;;13.27;63.81
63194;BME280;49289;51.670;5.624;2023-03-25T04:49:51;100306.29;;;13.53;63.51
63194;BME280;49289;51.670;5.624;2023-03-25T04:51:38;100322.23;;;13.36;63.83
63194;BME280;49289;51.670;5.624;2023-03-25T04:53:27;100322.56;;;13.42;63.15
63194;BME280;49289;51.670;5.624;2023-03-25T04:55:13;100300.07;;;13.01;64.30
63194;BME280;49289;51.670;5.624;2023-03-25T04:57:01;100298.77;;;13.25;63.81
63194;BME280;49289;51.670;5.624;2023-03-25T04:58:49;100316.23;;;13.08;64.40
63194;BME280;49289;51.670;5.624;2023-03-25T05:00:37;100320.89;;;13.22;64.24
63194;BME280;49289;51.670;5.624;2023-03-25T05:02:25;100315.88;;;13.23;64.16
63194;BME280;49289;51.670;5.624;2023-03-25T05:04:14;100312.94;;;13.04;64.91
63194;BME280;49289;51.670;5.624;2023-03-25T05:06:01;100295.59;;;13.17;64.22
63194;BME280;49289;51.670;5.624;2023-03-25T05:07:51;100298.41;;;13.27;63.59
63194;BME280;49289;51.670;5.624;2023-03-25T05:09:37;100309.84;;;13.02;64.32
63194;BME280;49289;51.670;5.624;2023-03-25T05:11:24;100300.39;;;13.36;64.23
63194;BME280;49289;51.670;5.624;2023-03-25T05:13:11;100313.64;;;13.10;65.17
63194;BME280;49289;51.670;5.624;2023-03-25T05:14:58;100320.77;;;13.43;64.60
63194;BME280;49289;51.670;5.624;2023-03-25T05:16:45;100323.46;;;12.73;66.64
63194;BME280;49289;51.670;5.624;2023-03-25T05:18:32;100314.39;;;12.48;67.30
63194;BME280;49289;51.670;5.624;2023-03-25T05:20:19;100322.56;;;13.15;65.59
63194;BME280;49289;51.670;5.624;2023-03-25T05:22:07;100318.14;;;12.67;67.34
63194;BME280;49289;51.670;5.624;2023-03-25T05:23:56;100319.28;;;13.28;66.08
63194;BME280;49289;51.670;5.624;2023-03-25T05:25:44;100308.77;;;12.61;66.88
63194;BME280;49289;51.670;5.624;2023-03-25T05:27:32;100320.41;;;12.53;68.28
63194;BME280;49289;51.670;5.624;2023-03-25T05:29:20;100328.51;;;12.77;68.19
63194;BME280;49289;51.670;5.624;2023-03-25T05:31:08;100307.63;;;12.64;68.25
63194;BME280;49289;51.670;5.624;2023-03-25T05:32:56;100304.97;;;12.83;67.32
63194;BME280;49289;51.670;5.624;2023-03-25T05:34:44;100313.28;;;12.94;67.11
63194;BME280;49289;51.670;5.624;2023-03-25T05:36:31;100337.83;;;12.48;68.35
63194;BME280;49289;51.670;5.624;2023-03-25T05:38:19;100338.64;;;12.81;67.50
63194;BME280;49289;51.670;5.624;2023-03-25T05:40:08;100323.95;;;12.73;67.51
63194;BME280;49289;51.670;5.624;2023-03-25T05:41:55;100339.73;;;12.72;67.36
63194;BME280;49289;51.670;5.624;2023-03-25T05:43:42;100346.88;;;12.81;67.52
63194;BME280;49289;51.670;5.624;2023-03-25T05:45:29;100332.16;;;12.99;66.09
63194;BME280;49289;51.670;5.624;2023-03-25T05:47:16;100349.47;;;12.82;66.84
63194;BME280;49289;51.670;5.624;2023-03-25T05:49:03;100347.59;;;12.80;67.10
63194;BME280;49289;51.670;5.624;2023-03-25T05:50:50;100352.30;;;12.98;65.90
63194;BME280;49289;51.670;5.624;2023-03-25T05:52:37;100338.50;;;12.88;66.19
63194;BME280;49289;51.670;5.624;2023-03-25T05:54:24;100353.92;;;12.76;66.50
63194;BME280;49289;51.670;5.624;2023-03-25T05:56:12;100352.30;;;12.51;66.82
63194;BME280;49289;51.670;5.624;2023-03-25T05:58:00;100342.33;;;12.86;66.27
63194;BME280;49289;51.670;5.624;2023-03-25T05:59:47;100362.77;;;13.28;64.82
63194;BME280;49289;51.670;5.624;2023-03-25T06:01:34;100359.03;;;13.10;65.03
63194;BME280;49289;51.670;5.624;2023-03-25T06:03:21;100352.00;;;12.95;65.13
63194;BME280;49289;51.670;5.624;2023-03-25T06:05:08;100339.92;;;12.89;64.62
63194;BME280;49289;51.670;5.624;2023-03-25T06:06:55;100344.08;;;12.91;65.10
63194;BME280;49289;51.670;5.624;2023-03-25T06:08:42;100351.14;;;12.81;65.01
63194;BME280;49289;51.670;5.624;2023-03-25T06:10:29;100337.34;;;13.17;63.63
63194;BME280;49289;51.670;5.624;2023-03-25T06:12:19;100340.34;;;13.27;63.66
63194;BME280;49289;51.670;5.624;2023-03-25T06:14:05;100357.80;;;13.14;63.52
63194;BME280;49289;51.670;5.624;2023-03-25T06:15:52;100341.11;;;12.98;63.85
63194;BME280;49289;51.670;5.624;2023-03-25T06:17:40;100340.69;;;13.15;63.75
63194;BME280;49289;51.670;5.624;2023-03-25T06:19:28;100359.25;;;12.79;63.86
63194;BME280;49289;51.670;5.624;2023-03-25T06:21:15;100359.08;;;12.88;64.07
63194;BME280;49289;51.670;5.624;2023-03-25T06:23:02;100358.82;;;12.64;64.58
63194;BME280;49289;51.670;5.624;2023-03-25T06:24:49;100347.39;;;12.92;63.48
63194;BME280;49289;51.670;5.624;2023-03-25T06:26:36;100357.58;;;13.15;62.66
63194;BME280;49289;51.670;5.624;2023-03-25T06:28:23;100357.73;;;12.98;62.44
63194;BME280;49289;51.670;5.624;2023-03-25T06:30:12;100346.23;;;12.45;63.92
63194;BME280;49289;51.670;5.624;2023-03-25T06:31:59;100340.77;;;12.60;63.56
63194;BME280;49289;51.670;5.624;2023-03-25T06:33:48;100363.97;;;13.17;62.62
63194;BME280;49289;51.670;5.624;2023-03-25T06:35:35;100358.08;;;12.64;63.55
63194;BME280;49289;51.670;5.624;2023-03-25T06:37:24;100360.41;;;13.60;61.82
63194;BME280;49289;51.670;5.624;2023-03-25T06:39:12;100365.94;;;13.52;61.61
63194;BME280;49289;51.670;5.624;2023-03-25T06:40:59;100367.80;;;13.28;61.63
63194;BME280;49289;51.670;5.624;2023-03-25T06:42:48;100368.38;;;13.58;61.07
63194;BME280;49289;51.670;5.624;2023-03-25T06:44:36;100368.78;;;13.39;60.98
63194;BME280;49289;51.670;5.624;2023-03-25T06:46:24;100351.88;;;12.80;62.43
63194;BME280;49289;51.670;5.624;2023-03-25T06:48:12;100350.69;;;13.33;61.54
63194;BME280;49289;51.670;5.624;2023-03-25T06:50:00;100354.42;;;13.72;59.95
63194;BME280;49289;51.670;5.624;2023-03-25T06:51:48;100357.13;;;13.61;60.45
63194;BME280;49289;51.670;5.624;2023-03-25T06:53:36;100357.34;;;13.18;61.31
63194;BME280;49289;51.670;5.624;2023-03-25T06:55:24;100375.84;;;13.03;61.73
63194;BME280;49289;51.670;5.624;2023-03-25T06:57:12;100356.53;;;13.55;60.93
63194;BME280;49289;51.670;5.624;2023-03-25T06:59:00;100364.22;;;13.38;60.65
63194;BME280;49289;51.670;5.624;2023-03-25T07:00:51;100375.41;;;13.17;61.45
63194;BME280;49289;51.670;5.624;2023-03-25T07:02:35;100376.72;;;13.43;60.49
63194;BME280;49289;51.670;5.624;2023-03-25T07:04:22;100370.19;;;13.40;60.68
63194;BME280;49289;51.670;5.624;2023-03-25T07:06:12;100380.77;;;13.90;59.80
63194;BME280;49289;51.670;5.624;2023-03-25T07:07:57;100375.56;;;13.66;59.79
63194;BME280;49289;51.670;5.624;2023-03-25T07:09:44;100376.30;;;13.65;60.01
63194;BME280;49289;51.670;5.624;2023-03-25T07:11:31;100366.27;;;13.62;59.81
63194;BME280;49289;51.670;5.624;2023-03-25T07:13:19;100353.06;;;13.55;59.90
63194;BME280;49289;51.670;5.624;2023-03-25T07:15:07;100350.86;;;13.67;59.66
63194;BME280;49289;51.670;5.624;2023-03-25T07:16:54;100368.59;;;13.71;59.44
63194;BME280;49289;51.670;5.624;2023-03-25T07:18:41;100368.50;;;14.03;59.08
63194;BME280;49289;51.670;5.624;2023-03-25T07:20:28;100367.98;;;13.55;59.97
63194;BME280;49289;51.670;5.624;2023-03-25T07:22:15;100372.91;;;13.73;59.72
63194;BME280;49289;51.670;5.624;2023-03-25T07:24:03;100365.06;;;14.04;58.65
63194;BME280;49289;51.670;5.624;2023-03-25T07:25:52;100376.82;;;13.95;59.14
63194;BME280;49289;51.670;5.624;2023-03-25T07:27:40;100361.59;;;13.63;59.63
63194;BME280;49289;51.670;5.624;2023-03-25T07:29:27;100379.70;;;14.23;58.58
63194;BME280;49289;51.670;5.624;2023-03-25T07:31:14;100377.86;;;13.81;59.33
63194;BME280;49289;51.670;5.624;2023-03-25T07:33:01;100381.88;;;14.24;58.39
63194;BME280;49289;51.670;5.624;2023-03-25T07:34:49;100369.98;;;13.95;59.17
63194;BME280;49289;51.670;5.624;2023-03-25T07:36:38;100382.08;;;14.19;59.13
63194;BME280;49289;51.670;5.624;2023-03-25T07:38:26;100386.07;;;14.48;58.60
63194;BME280;49289;51.670;5.624;2023-03-25T07:40:15;100388.39;;;14.08;59.84
63194;BME280;49289;51.670;5.624;2023-03-25T07:42:04;100403.08;;;13.77;62.23
63194;BME280;49289;51.670;5.624;2023-03-25T07:43:51;100383.91;;;13.44;63.75
63194;BME280;49289;51.670;5.624;2023-03-25T07:45:39;100400.27;;;12.92;65.24
63194;BME280;49289;51.670;5.624;2023-03-25T07:47:27;100403.14;;;13.28;65.14
63194;BME280;49289;51.670;5.624;2023-03-25T07:49:14;100385.73;;;13.44;64.32
63194;BME280;49289;51.670;5.624;2023-03-25T07:51:02;100402.23;;;13.64;63.96
63194;BME280;49289;51.670;5.624;2023-03-25T07:52:50;100402.20;;;13.41;65.17
63194;BME280;49289;51.670;5.624;2023-03-25T07:54:37;100406.27;;;13.23;64.55
63194;BME280;49289;51.670;5.624;2023-03-25T07:56:24;100404.17;;;13.14;65.17
63194;BME280;49289;51.670;5.624;2023-03-25T07:58:11;100404.88;;;13.36;64.97
63194;BME280;49289;51.670;5.624;2023-03-25T07:59:58;100401.23;;;13.79;64.04
63194;BME280;49289;51.670;5.624;2023-03-25T08:01:45;100405.38;;;13.32;64.31
63194;BME280;49289;51.670;5.624;2023-03-25T08:03:33;100408.72;;;13.15;64.91
63194;BME280;49289;51.670;5.624;2023-03-25T08:05:21;100399.44;;;13.35;64.07
63194;BME280;49289;51.670;5.624;2023-03-25T08:07:08;100397.33;;;13.41;64.11
63194;BME280;49289;51.670;5.624;2023-03-25T08:08:55;100415.06;;;13.20;65.25
63194;BME280;49289;51.670;5.624;2023-03-25T08:10:42;100411.52;;;13.60;64.63
63194;BME280;49289;51.670;5.624;2023-03-25T08:12:29;100417.06;;;13.18;65.25
63194;BME280;49289;51.670;5.624;2023-03-25T08:14:17;100416.06;;;13.89;64.29
63194;BME280;49289;51.670;5.624;2023-03-25T08:16:07;100406.69;;;13.45;63.82
63194;BME280;49289;51.670;5.624;2023-03-25T08:17:52;100423.87;;;13.73;63.13
63194;BME280;49289;51.670;5.624;2023-03-25T08:19:40;100424.12;;;13.10;64.99
63194;BME280;49289;51.670;5.624;2023-03-25T08:21:29;100429.73;;;13.41;64.40
63194;BME280;49289;51.670;5.624;2023-03-25T08:23:17;100432.82;;;13.75;64.32
63194;BME280;49289;51.670;5.624;2023-03-25T08:25:05;100429.92;;;13.79;63.73
63194;BME280;49289;51.670;5.624;2023-03-25T08:26:52;100425.73;;;14.06;63.53
63194;BME280;49289;51.670;5.624;2023-03-25T08:28:39;100416.52;;;13.58;63.45
63194;BME280;49289;51.670;5.624;2023-03-25T08:30:27;100421.50;;;13.34;64.45
63194;BME280;49289;51.670;5.624;2023-03-25T08:32:14;100430.70;;;13.68;64.15
63194;BME280;49289;51.670;5.624;2023-03-25T08:34:02;100438.59;;;13.24;64.58
63194;BME280;49289;51.670;5.624;2023-03-25T08:35:49;100415.39;;;13.55;64.50
63194;BME280;49289;51.670;5.624;2023-03-25T08:37:37;100410.02;;;13.65;63.35
63194;BME280;49289;51.670;5.624;2023-03-25T08:39:26;100431.30;;;13.78;62.75
63194;BME280;49289;51.670;5.624;2023-03-25T08:41:14;100442.02;;;13.88;63.18
63194;BME280;49289;51.670;5.624;2023-03-25T08:43:02;100438.81;;;13.93;62.34
63194;BME280;49289;51.670;5.624;2023-03-25T08:44:48;100431.55;;;13.62;62.99
63194;BME280;49289;51.670;5.624;2023-03-25T08:46:35;100455.72;;;13.52;63.98
63194;BME280;49289;51.670;5.624;2023-03-25T08:48:23;100446.53;;;13.58;63.13
63194;BME280;49289;51.670;5.624;2023-03-25T08:50:12;100429.34;;;13.60;63.71
63194;BME280;49289;51.670;5.624;2023-03-25T08:52:00;100451.05;;;13.50;65.99
63194;BME280;49289;51.670;5.624;2023-03-25T08:53:48;100436.17;;;13.18;66.77
63194;BME280;49289;51.670;5.624;2023-03-25T08:55:37;100441.47;;;12.93;68.32
63194;BME280;49289;51.670;5.624;2023-03-25T08:57:25;100460.14;;;13.65;66.92
63194;BME280;49289;51.670;5.624;2023-03-25T08:59:12;100454.31;;;13.62;67.36
63194;BME280;49289;51.670;5.624;2023-03-25T09:00:59;100454.31;;;13.88;67.02
63194;BME280;49289;51.670;5.624;2023-03-25T09:02:46;100461.63;;;13.48;67.93
63194;BME280;49289;51.670;5.624;2023-03-25T09:04:34;100442.19;;;13.27;67.90
63194;BME280;49289;51.670;5.624;2023-03-25T09:06:23;100438.08;;;13.16;68.74
63194;BME280;49289;51.670;5.624;2023-03-25T09:08:11;100428.10;;;13.52;68.02
63194;BME280;49289;51.670;5.624;2023-03-25T09:09:58;100454.54;;;13.27;68.49
63194;BME280;49289;51.670;5.624;2023-03-25T09:11:45;100435.38;;;13.16;68.30
63194;BME280;49289;51.670;5.624;2023-03-25T09:13:32;100450.92;;;13.66;68.79
63194;BME280;49289;51.670;5.624;2023-03-25T09:15:21;100427.63;;;13.99;67.88
63194;BME280;49289;51.670;5.624;2023-03-25T09:17:08;100439.43;;;14.02;66.75
63194;BME280;49289;51.670;5.624;2023-03-25T09:18:56;100431.55;;;13.55;68.40
63194;BME280;49289;51.670;5.624;2023-03-25T09:20:44;100432.08;;;13.49;68.26
63194;BME280;49289;51.670;5.624;2023-03-25T09:22:33;100420.81;;;14.00;67.15
63194;BME280;49289;51.670;5.624;2023-03-25T09:24:20;100438.35;;;14.54;66.86
63194;BME280;49289;51.670;5.624;2023-03-25T09:26:07;100421.91;;;14.58;64.93
63194;BME280;49289;51.670;5.624;2023-03-25T09:27:55;100421.77;;;14.60;64.79
63194;BME280;49289;51.670;5.624;2023-03-25T09:29:43;100427.34;;;14.81;65.27